Flight Track Log - Related Links

Times and Time Zones

All times are in EDT time to prevent confusion due to time zone crossing. See the SWA864 flight status page for this flight to view local times or setup timezone preferences in your user account.

Time Position Orientation Groundspeed Altitude Reporting Facility
EDT Latitude Longitude Course Direction KTS MPH feet Rate Location/Type
Sat 10:25:56 AM 41.7833 -87.7000 201° Southwest 193 222 2,800  Level Chicago TRACON
Sat 10:26:13 AM 41.7858 -87.6981 30° Northeast 189 217 3,100 2,385 Climbing Chicago Center
Sat 10:27:14 AM 41.7272 -87.7175 194° South 251 289 5,900 1,415 Climbing Chicago Center
Sat 10:28:16 AM 41.6642 -87.7786 216° Southwest 275 316 6,000 1,463 Climbing Chicago Center
Sat 10:29:17 AM 41.5925 -87.8522 218° Southwest 273 314 8,900 1,574 Climbing Chicago Center
Sat 10:30:18 AM 41.5467 -87.9314 232° Southwest 270 311 9,200 1,415 Climbing Chicago Center
Sat 10:31:00 AM 41.2453 -88.2440 201° Southwest  Level FlightAware
Sat 10:31:20 AM 41.5000 -88.0117 232° Southwest 274 315 11,800  Level Chicago Center
Sat 10:32:21 AM 41.4311 -88.0697 212° Southwest 324 373 12,700 2,000 Climbing Chicago Center
Sat 10:33:23 AM 41.3231 -88.1281 202° Southwest 355 409 15,900 2,341 Climbing Chicago Center
Sat 10:34:24 AM 41.2300 -88.1786 202° Southwest 362 417 17,500 1,610 Climbing Chicago Center
Sat 10:35:26 AM 41.1322 -88.2322 202° Southwest 376 433 19,200 2,098 Climbing Chicago Center
Sat 10:36:27 AM 41.0314 -88.2869 202° Southwest 390 449 21,800 2,390 Climbing Chicago Center
Sat 10:37:29 AM 40.9278 -88.3417 202° Southwest 400 460 24,100 2,098 Climbing Chicago Center
Sat 10:38:30 AM 40.8189 -88.4006 202° Southwest 420 483 26,100 1,967 Climbing Chicago Center
Sat 10:39:31 AM 40.6850 -88.4708 202° Southwest 432 497 28,100 1,610 Climbing Chicago Center
Sat 10:40:33 AM 40.5700 -88.5336 203° Southwest 445 512 29,400 1,220 Climbing Chicago Center
Sat 10:41:34 AM 40.4642 -88.5883 201° Southwest 458 527 30,600 1,610 Climbing Chicago Center
Sat 10:42:36 AM 40.3439 -88.6525 202° Southwest 464 534 32,700 1,951 Climbing Chicago Center
Sat 10:43:37 AM 40.2500 -88.7528 219° Southwest 444 511 34,600 1,805 Climbing Chicago Center
Sat 10:44:39 AM 40.1489 -88.8803 224° Southwest 422 486 36,400 1,463 Climbing Chicago Center
Sat 10:45:40 AM 40.0642 -88.9881 224° Southwest 423 487 37,600 787 Climbing Chicago Center
Sat 10:46:41 AM 39.9811 -89.0944 224° Southwest 419 482 38,000 209 Climbing Chicago Center
Sat 10:47:35 AM 39.9139 -89.1819 225° Southwest 420 483 38,000  Level Kansas Center
Sat 10:48:37 AM 39.8303 -89.2869 224° Southwest 418 481 38,000  Level Kansas Center
Sat 10:49:39 AM 39.7453 -89.3917 223° Southwest 418 481 38,000  Level Kansas Center
Sat 10:50:40 AM 39.6558 -89.5036 224° Southwest 421 484 38,000  Level Kansas Center
Sat 10:51:42 AM 39.5714 -89.6106 224° Southwest 424 488 38,000  Level Kansas Center
Sat 10:52:44 AM 39.4856 -89.7169 224° Southwest 427 491 38,000  Level Kansas Center
Sat 10:53:45 AM 39.3822 -89.8444 224° Southwest 429 494 38,000  Level Kansas Center
Sat 10:54:47 AM 39.3028 -89.9558 227° Southwest 424 488 38,000  Level Kansas Center
Sat 10:55:49 AM 39.2300 -90.0733 231° Southwest 421 484 38,000  Level Kansas Center
Sat 10:56:51 AM 39.1553 -90.1914 231° Southwest 426 490 38,000  Level Kansas Center
Sat 10:57:52 AM 39.0792 -90.3083 230° Southwest 428 493 38,000  Level Kansas Center
Sat 10:58:54 AM 39.0044 -90.4261 231° Southwest 429 494 38,000  Level Kansas Center
Sat 10:59:56 AM 38.9231 -90.5514 230° Southwest 429 494 38,000  Level Kansas Center
Sat 11:00:58 AM 38.8364 -90.6839 230° Southwest 434 499 38,000  Level Kansas Center
Sat 11:02:00 AM 38.7594 -90.7978 229° Southwest 430 495 38,000  Level Kansas Center
Sat 11:03:01 AM 38.6814 -90.9172 230° Southwest 437 503 38,000  Level Kansas Center
Sat 11:04:03 AM 38.6031 -91.0361 230° Southwest 440 506 38,000  Level Kansas Center
Sat 11:05:05 AM 38.5097 -91.1778 230° Southwest 436 502 38,000  Level Kansas Center
Sat 11:06:07 AM 38.4314 -91.2964 230° Southwest 437 503 38,000  Level Kansas Center
Sat 11:07:09 AM 38.3561 -91.4094 230° Southwest 439 505 38,000  Level Kansas Center
Sat 11:08:11 AM 38.2739 -91.5283 229° Southwest 441 507 38,000  Level Kansas Center
Sat 11:09:13 AM 38.1783 -91.6708 230° Southwest 438 504 38,000  Level Kansas Center
Sat 11:10:14 AM 38.1572 -91.8131 259° West 410 472 38,000  Level Kansas Center
Sat 11:11:16 AM 38.1564 -91.9606 270° West 415 478 38,000  Level Kansas Center
Sat 11:12:18 AM 38.1583 -92.1103 271° West 406 467 38,000  Level Kansas Center
Sat 11:13:20 AM 38.1594 -92.2550 271° West 413 475 38,000  Level Kansas Center
Sat 11:14:22 AM 38.1614 -92.4011 271° West 416 479 38,000  Level Kansas Center
Sat 11:15:24 AM 38.1625 -92.5494 271° West 419 482 38,000  Level Kansas Center
Sat 11:16:26 AM 38.1619 -92.6972 270° West 420 483 38,000  Level Kansas Center
Sat 11:17:28 AM 38.1611 -92.8656 270° West 422 486 38,000  Level Kansas Center
Sat 11:18:30 AM 38.1611 -93.0167 270° West 425 489 38,000  Level Kansas Center
Sat 11:19:32 AM 38.1622 -93.1678 271° West 426 490 38,000  Level Kansas Center
Sat 11:20:34 AM 38.1622 -93.3172 270° West 425 489 38,000  Level Kansas Center
Sat 11:21:36 AM 38.1611 -93.5006 270° West 430 495 38,000  Level Kansas Center
Sat 11:22:38 AM 38.1606 -93.6494 270° West 425 489 38,000  Level Kansas Center
Sat 11:23:40 AM 38.1603 -93.7972 270° West 420 483 38,000  Level Kansas Center
Sat 11:24:42 AM 38.1606 -93.9447 270° West 418 481 38,000  Level Kansas Center
Sat 11:25:44 AM 38.1594 -94.1036 270° West 422 486 38,000  Level Kansas Center
Sat 11:26:46 AM 38.1586 -94.2442 270° West 418 481 38,000  Level Kansas Center
Sat 11:27:48 AM 38.1558 -94.4106 269° West 420 483 38,000  Level Kansas Center
Sat 11:28:50 AM 38.1553 -94.5481 270° West 411 473 38,000  Level Kansas Center
Sat 11:29:52 AM 38.1531 -94.7103 269° West 410 472 38,000 339 Level Kansas Center
Sat 11:30:54 AM 38.1508 -94.8481 269° West 408 470 38,700 823 Climbing Kansas Center
Sat 11:31:56 AM 38.1483 -95.0108 269° West 411 473 39,700 629 Climbing Kansas Center
Sat 11:32:58 AM 38.1456 -95.1536 269° West 417 480 40,000 145 Climbing Kansas Center
Sat 11:34:00 AM 38.1428 -95.3169 269° West 413 475 40,000  Level Kansas Center
Sat 11:35:02 AM 38.1403 -95.4553 269° West 410 472 40,000  Level Kansas Center
Sat 11:36:04 AM 38.1381 -95.5908 269° West 403 464 40,000  Level Kansas Center
Sat 11:37:06 AM 38.1342 -95.7478 268° West 399 459 40,000  Level Kansas Center
Sat 11:38:08 AM 38.1317 -95.8806 269° West 395 455 40,000  Level Kansas Center
Sat 11:39:10 AM 38.1281 -96.0369 268° West 396 456 40,000  Level Kansas Center
Sat 11:40:12 AM 38.1239 -96.1828 268° West 395 455 40,000  Level Kansas Center
Sat 11:41:14 AM 38.1206 -96.3214 268° West 394 453 40,000  Level Kansas Center
Sat 11:42:16 AM 38.1169 -96.4600 268° West 394 453 40,000  Level Kansas Center
Sat 11:43:18 AM 38.1122 -96.5986 268° West 393 452 40,000  Level Kansas Center
Sat 11:44:19 AM 38.1092 -96.7383 268° West 395 455 40,000  Level Kansas Center
Sat 11:45:21 AM 38.1039 -96.8803 267° West 401 461 40,000  Level Kansas Center
Sat 11:46:23 AM 38.0992 -97.0233 268° West 406 467 40,000  Level Kansas Center
Sat 11:47:25 AM 38.0942 -97.1919 268° West 400 460 40,000  Level Kansas Center
Sat 11:48:27 AM 38.0889 -97.3333 267° West 401 461 40,000  Level Kansas Center
Sat 11:49:29 AM 38.0833 -97.4856 267° West 398 458 40,000  Level Kansas Center
Sat 11:50:31 AM 38.0772 -97.6336 267° West 404 465 40,000  Level Kansas Center
Sat 11:51:33 AM 38.0717 -97.7758 267° West 405 466 40,000  Level Kansas Center
Sat 11:52:35 AM 38.0686 -97.9017 268° West 404 465 40,000  Level Kansas Center
Sat 11:53:37 AM 38.0617 -98.0739 267° West 407 468 40,000  Level Kansas Center
Sat 11:54:38 AM 38.0636 -98.2031 271° West 401 461 40,000  Level Kansas Center
Sat 11:55:40 AM 38.0714 -98.3436 274° West 405 466 40,000  Level Kansas Center
Sat 11:56:42 AM 38.0792 -98.4858 274° West 404 465 40,000  Level Kansas Center
Sat 11:57:44 AM 38.0881 -98.6553 274° West 403 464 40,000  Level Kansas Center
Sat 11:58:46 AM 38.0947 -98.7975 273° West 404 465 40,000  Level Kansas Center
Sat 11:59:48 AM 38.1017 -98.9389 274° West 403 464 40,000  Level Kansas Center
Sat 12:00:50 PM 38.1086 -99.0814 274° West 404 465 40,000  Level Kansas Center
Sat 12:01:51 PM 38.1156 -99.2231 274° West 403 464 40,000  Level Kansas Center
Sat 12:02:53 PM 38.1214 -99.3642 273° West 401 461 40,000  Level Kansas Center
Sat 12:03:55 PM 38.1286 -99.5186 273° West 400 460 40,000  Level Kansas Center
Sat 12:04:57 PM 38.1353 -99.6747 273° West 398 458 40,000  Level Kansas Center
Sat 12:05:59 PM 38.1400 -99.8089 273° West 398 458 40,000  Level Kansas Center
Sat 12:07:01 PM 38.1467 -99.9664 273° West 400 460 40,000  Level Kansas Center
Sat 12:08:02 PM 38.1514 -100.1008 273° West 399 459 40,000  Level Kansas Center
Sat 12:09:04 PM 38.1575 -100.2353 273° West 399 459 40,000  Level Kansas Center
Sat 12:10:06 PM 38.1622 -100.3906 272° West 396 456 40,000  Level Kansas Center
Sat 12:11:08 PM 38.1656 -100.5228 272° West 395 455 40,000  Level Kansas Center
Sat 12:12:10 PM 38.1711 -100.6769 273° West 394 453 40,000  Level Kansas Center
Sat 12:13:11 PM 38.1753 -100.8083 272° West 392 451 40,000  Level Kansas Center
Sat 12:14:13 PM 38.1800 -100.9622 272° West 392 451 40,000  Level Kansas Center
Sat 12:15:15 PM 38.1839 -101.0944 272° West 393 452 40,000  Level Kansas Center
Sat 12:15:31 PM 38.1850 -101.1383 272° West 395 455 40,000  Level Denver Center
Sat 12:16:33 PM 38.1889 -101.2703 272° West 393 452 40,000  Level Denver Center
Sat 12:17:35 PM 38.1947 -101.4242 273° West 392 451 40,000 -488 Level Denver Center
Sat 12:18:36 PM 38.2444 -101.5453 298° West 412 474 39,000 -976 Descending Denver Center
Sat 12:19:38 PM 38.3139 -101.6869 302° West 421 484 38,000 -968 Descending Denver Center
Sat 12:20:40 PM 38.3744 -101.8067 303° West 421 484 37,000 -882 Descending Denver Center
Sat 12:21:54 PM 38.4436 -101.9467 302° West 419 482 36,000 -851 Descending Denver Center
Sat 12:23:08 PM 38.5128 -102.0886 302° West 422 486 34,900 -882 Descending Denver Center
Sat 12:24:10 PM 38.5944 -102.2525 303° West 428 493 34,000 -435 Descending Denver Center
Sat 12:25:12 PM 38.6639 -102.3967 302° West 427 491 34,000  Level Denver Center
Sat 12:26:14 PM 38.7247 -102.5186 303° West 426 490 34,000  Level Denver Center
Sat 12:27:15 PM 38.7919 -102.6611 301° West 419 482 34,000  Level Denver Center
Sat 12:28:29 PM 38.8503 -102.7803 302° West 424 488 34,000  Level Denver Center
Sat 12:29:31 PM 38.9281 -102.9439 301° West 421 484 34,000  Level Denver Center
Sat 12:30:33 PM 38.9864 -103.0661 302° West 421 484 34,000 -387 Level Denver Center
Sat 12:31:35 PM 39.0542 -103.2089 301° West 419 482 33,200 -1,500 Descending Denver Center
Sat 12:32:37 PM 39.1128 -103.3303 302° West 418 481 30,900 -2,323 Descending Denver Center
Sat 12:33:39 PM 39.1781 -103.4692 301° West 407 468 28,400 -2,177 Descending Denver Center
Sat 12:34:41 PM 39.2322 -103.5850 301° West 397 457 26,400 -2,098 Descending Denver Center
Sat 12:35:42 PM 39.2939 -103.7158 301° West 385 443 24,100 -2,098 Descending Denver Center
Sat 12:36:44 PM 39.3472 -103.8319 301° West 392 451 22,100 -1,452 Descending Denver Center
Sat 12:37:46 PM 39.4042 -103.9539 301° West 379 436 21,100 -1,306 Descending Denver Center
Sat 12:38:48 PM 39.4656 -104.0561 308° West 338 389 19,400 -1,548 Descending Denver Center
Sat 12:39:50 PM 39.5206 -104.1481 308° West 324 373 17,900 -1,161 Descending Denver Center
Sat 12:40:52 PM 39.5753 -104.2372 309° West 319 367 17,000 -726 Descending Denver Center
Sat 12:41:54 PM 39.6317 -104.3319 308° West 310 357 16,400 -1,016 Descending Denver Center
Sat 12:42:56 PM 39.6839 -104.4186 308° West 305 351 14,900 -1,452 Descending Denver Center
Sat 12:43:58 PM 39.7378 -104.5072 308° West 292 336 13,400 -1,403 Descending Denver Center
Sat 12:45:00 PM 39.8189 -104.5233 351° North 308 354 12,000 -1,113 Descending Denver Center
Sat 12:46:02 PM 39.9086 -104.5219 North 302 348 11,100 -756 Descending Denver Center
Sat 12:47:15 PM 39.9831 -104.5217 360° North 274 315 10,300 -882 Descending Denver Center
Sat 12:48:18 PM 40.0542 -104.5503 343° North 234 269 9,100 -1,104 Descending Denver Center
Sat 12:49:20 PM 40.0361 -104.6197 251° West 210 242 8,000 -1,016 Descending Denver Center
Sat 12:50:22 PM 39.9958 -104.6681 223° Southwest 199 229 7,000 -750 Descending Denver Center
Sat 12:51:36 PM 39.9506 -104.6867 197° South 165 190 6,300 -662 Descending Denver Center
Sat 12:52:38 PM 39.9006 -104.6869 180° South 148 170 5,500 -774 Descending Denver Center
Sat 12:54:00 PM 39.8617 -104.6732 North  Level Estimated
Sat 01:01:00 PM 39.8617 -104.6732 North  Level Estimated
Sat 01:02:00 PM 39.8617 -104.6732 North  Level Estimated

Login

Don't have an account? Register now (free) for customized features, flight alerts, and more!